Time;durP1;ratioP1;P1;durP2;ratioP2;P2;SDS_P1;SDS_P2;PMS_P1;PMS_P2;Temp;Humidity;BMP_temperature;BMP_pressure;BME280_temperature;BME280_humidity;BME280_pressure;Samples;Min_cycle;Max_cycle;Signal;HPM_P1;HPM_P2
2022/04/14 00:00:57;;;;;;;0.50;0.40;;;12.40;99.90;;;;;;5073825;28;20194;-78
2022/04/14 00:03:25;;;;;;;0.50;0.40;;;12.50;99.90;;;;;;5073872;28;20675;-76
2022/04/14 00:05:52;;;;;;;0.50;0.40;;;12.50;99.90;;;;;;5075369;28;20227;-77
2022/04/14 00:08:19;;;;;;;0.50;0.40;;;12.50;99.90;;;;;;5075574;28;20438;-77
2022/04/14 00:10:45;;;;;;;0.50;0.40;;;12.60;99.90;;;;;;5078496;28;20197;-76
2022/04/14 00:13:12;;;;;;;0.50;0.40;;;12.60;99.90;;;;;;5078344;28;20224;-76
2022/04/14 00:15:39;;;;;;;0.50;0.40;;;12.50;99.90;;;;;;5078583;28;20672;-76
2022/04/14 00:18:06;;;;;;;0.50;0.40;;;12.50;99.90;;;;;;5078877;28;20198;-77
2022/04/14 00:20:34;;;;;;;0.50;0.30;;;12.40;99.90;;;;;;5077942;28;20856;-77
2022/04/14 00:23:01;;;;;;;0.50;0.40;;;12.40;99.90;;;;;;5078606;28;20193;-76
2022/04/14 00:25:28;;;;;;;0.50;0.30;;;12.40;99.90;;;;;;5079335;28;20551;-76
2022/04/14 00:27:55;;;;;;;0.50;0.30;;;12.40;99.90;;;;;;5078060;28;20236;-78
2022/04/14 00:30:21;;;;;;;0.50;0.40;;;12.50;99.90;;;;;;5077938;28;20459;-78
2022/04/14 00:32:48;;;;;;;0.50;0.40;;;12.50;99.90;;;;;;5078569;28;20220;-76
2022/04/14 00:35:15;;;;;;;0.50;0.40;;;12.40;99.90;;;;;;5078297;28;20206;-78
2022/04/14 00:37:43;;;;;;;0.50;0.40;;;12.40;99.90;;;;;;5078674;28;20201;-77
2022/04/14 00:40:12;;;;;;;0.50;0.35;;;12.50;99.90;;;;;;5077917;28;20226;-77
2022/04/14 00:42:39;;;;;;;0.50;0.40;;;12.50;99.90;;;;;;5078350;28;20201;-78
2022/04/14 00:45:07;;;;;;;0.50;0.30;;;12.50;99.90;;;;;;5078611;28;20284;-78
2022/04/14 00:47:36;;;;;;;0.50;0.40;;;12.50;99.90;;;;;;5078002;28;20198;-78
2022/04/14 00:50:03;;;;;;;0.50;0.40;;;12.60;99.90;;;;;;5077352;28;20217;-76
2022/04/14 00:52:30;;;;;;;0.50;0.30;;;12.60;99.90;;;;;;5077001;28;20209;-77
2022/04/14 00:54:58;;;;;;;0.50;0.40;;;12.60;99.90;;;;;;5078048;28;20217;-77
2022/04/14 00:57:25;;;;;;;0.50;0.40;;;12.60;99.90;;;;;;5077487;28;20451;-78
2022/04/14 00:59:52;;;;;;;0.50;0.40;;;12.60;99.90;;;;;;5076222;28;20214;-77
2022/04/14 01:02:20;;;;;;;0.50;0.40;;;12.70;99.90;;;;;;5076851;28;20198;-78
2022/04/14 01:04:49;;;;;;;0.50;0.40;;;12.60;99.90;;;;;;5074915;28;20194;-78
2022/04/14 01:07:15;;;;;;;0.50;0.40;;;12.70;99.90;;;;;;5076026;28;20289;-78
2022/04/14 01:09:43;;;;;;;0.50;0.40;;;12.70;99.90;;;;;;5075298;28;20464;-77
2022/04/14 01:12:12;;;;;;;0.50;0.37;;;12.70;99.90;;;;;;5075947;28;20443;-76
2022/04/14 01:14:39;;;;;;;0.50;0.40;;;12.70;99.90;;;;;;5075817;28;20507;-77
2022/04/14 01:17:07;;;;;;;0.50;0.40;;;12.60;99.90;;;;;;5075994;28;20440;-77
2022/04/14 01:19:35;;;;;;;0.50;0.40;;;12.60;99.90;;;;;;5076781;28;20527;-79
2022/04/14 01:22:07;;;;;;;0.50;0.30;;;12.50;99.90;;;;;;5084053;28;20455;-78
2022/04/14 01:24:36;;;;;;;0.50;0.40;;;12.50;99.90;;;;;;5082867;28;20421;-79
2022/04/14 01:27:03;;;;;;;0.50;0.40;;;12.50;99.90;;;;;;5081404;28;20441;-79
2022/04/14 01:29:30;;;;;;;0.50;0.40;;;12.50;99.90;;;;;;5079834;28;20269;-78
2022/04/14 01:31:58;;;;;;;0.50;0.50;;;12.50;99.90;;;;;;5074113;28;20444;-78
2022/04/14 01:34:25;;;;;;;0.50;0.40;;;12.60;99.90;;;;;;5073688;28;20221;-78
2022/04/14 01:36:52;;;;;;;0.50;0.40;;;12.60;99.90;;;;;;5073737;28;20432;-78
2022/04/14 01:39:18;;;;;;;0.50;0.40;;;12.60;99.90;;;;;;5073105;28;20468;-79
2022/04/14 01:41:46;;;;;;;0.50;0.40;;;12.60;99.90;;;;;;5090630;22;20491;-78
2022/04/14 01:44:13;;;;;;;0.50;0.40;;;12.50;99.90;;;;;;5068227;28;20448;-78
2022/04/14 01:46:41;;;;;;;0.90;0.68;;;12.50;99.90;;;;;;5072637;28;20194;-78
2022/04/14 01:49:08;;;;;;;0.50;0.40;;;12.40;99.90;;;;;;5069897;28;20263;-78
2022/04/14 01:51:35;;;;;;;0.52;0.40;;;12.40;99.90;;;;;;5053323;28;20495;-77
2022/04/14 01:54:02;;;;;;;0.80;0.80;;;12.40;99.90;;;;;;5053617;28;20218;-78
2022/04/14 01:56:29;;;;;;;0.50;0.40;;;12.40;99.90;;;;;;5053604;28;20206;-77
2022/04/14 01:58:57;;;;;;;0.50;0.40;;;12.40;99.90;;;;;;5052358;28;20447;-77
2022/04/14 02:01:24;;;;;;;1.85;1.15;;;12.40;99.90;;;;;;5053527;28;20461;-77
2022/04/14 02:03:52;;;;;;;0.50;0.40;;;12.40;99.90;;;;;;5052636;28;20194;-78
2022/04/14 02:06:19;;;;;;;0.50;0.40;;;12.30;99.90;;;;;;5053157;28;20345;-78
2022/04/14 02:08:45;;;;;;;0.50;0.40;;;12.30;99.90;;;;;;5053119;28;20625;-75
2022/04/14 02:11:12;;;;;;;0.50;0.40;;;12.30;99.90;;;;;;5053014;28;20461;-78
2022/04/14 02:13:39;;;;;;;0.50;0.40;;;12.30;99.90;;;;;;5052978;28;20218;-78
2022/04/14 02:16:07;;;;;;;2.35;2.25;;;12.30;99.90;;;;;;5053266;28;20615;-77
2022/04/14 02:18:34;;;;;;;0.50;0.40;;;12.30;99.90;;;;;;5052875;28;20194;-78
2022/04/14 02:21:01;;;;;;;0.50;0.40;;;12.30;99.90;;;;;;5052531;28;20218;-77
2022/04/14 02:23:28;;;;;;;0.50;0.40;;;12.30;99.90;;;;;;5052759;28;20194;-78
2022/04/14 02:25:54;;;;;;;0.50;0.40;;;12.30;99.90;;;;;;5052851;28;20206;-78
2022/04/14 02:28:21;;;;;;;0.60;0.50;;;12.30;99.90;;;;;;5052580;28;20198;-77
2022/04/14 02:30:48;;;;;;;0.50;0.40;;;12.30;99.90;;;;;;5051500;28;21004;-77
2022/04/14 02:33:16;;;;;;;0.70;0.70;;;12.30;99.90;;;;;;5052420;28;20218;-77
2022/04/14 02:35:43;;;;;;;0.50;0.40;;;12.20;99.90;;;;;;5052845;28;20198;-78
2022/04/14 02:38:10;;;;;;;0.50;0.40;;;12.20;99.90;;;;;;5052421;28;20440;-77
2022/04/14 02:40:37;;;;;;;0.55;0.32;;;12.20;99.90;;;;;;5051652;28;20472;-77
2022/04/14 02:43:04;;;;;;;0.50;0.40;;;12.20;99.90;;;;;;5052026;28;20202;-77
2022/04/14 02:45:31;;;;;;;0.50;0.40;;;12.20;99.90;;;;;;5052590;28;20445;-77
2022/04/14 02:47:58;;;;;;;0.50;0.40;;;12.20;99.90;;;;;;5052620;28;20221;-77
2022/04/14 02:50:26;;;;;;;0.50;0.40;;;12.20;99.90;;;;;;5051527;28;20198;-77
2022/04/14 02:52:54;;;;;;;0.50;0.35;;;12.20;99.90;;;;;;5051879;28;20198;-77
2022/04/14 02:55:21;;;;;;;0.50;0.40;;;12.20;99.90;;;;;;5052092;28;20199;-78
2022/04/14 02:57:48;;;;;;;2.15;1.85;;;12.10;99.90;;;;;;5052291;28;20472;-79
2022/04/14 03:00:16;;;;;;;0.50;0.40;;;12.10;99.90;;;;;;5051253;28;20252;-78
2022/04/14 03:02:43;;;;;;;0.60;0.52;;;12.10;99.90;;;;;;5052371;28;20206;-77
2022/04/14 03:05:11;;;;;;;0.60;0.52;;;12.10;99.90;;;;;;5051028;28;20199;-78
2022/04/14 03:07:39;;;;;;;0.77;0.77;;;12.00;99.90;;;;;;5052384;28;20560;-78
2022/04/14 03:10:07;;;;;;;0.82;0.82;;;12.00;99.90;;;;;;5050926;28;20472;-77
2022/04/14 03:12:41;;;;;;;0.50;0.40;;;12.00;99.90;;;;;;5052036;28;20191;-77
2022/04/14 03:15:08;;;;;;;0.50;0.40;;;12.00;99.90;;;;;;5051668;28;20799;-77
2022/04/14 03:17:35;;;;;;;0.50;0.50;;;12.00;99.90;;;;;;5051770;28;20202;-78
2022/04/14 03:20:02;;;;;;;0.50;0.50;;;12.00;99.90;;;;;;5051134;28;20222;-77
2022/04/14 03:22:33;;;;;;;1.02;0.80;;;12.00;99.90;;;;;;5051841;28;20468;-77
2022/04/14 03:25:02;;;;;;;0.50;0.40;;;12.00;99.90;;;;;;5051803;28;20207;-78
2022/04/14 03:27:29;;;;;;;3.25;1.23;;;12.10;99.90;;;;;;5051480;28;20595;-77
2022/04/14 03:29:56;;;;;;;0.50;0.37;;;12.10;99.90;;;;;;5051099;28;20195;-77
2022/04/14 03:32:24;;;;;;;0.50;0.40;;;12.00;99.90;;;;;;5051583;28;20461;-77
2022/04/14 03:34:51;;;;;;;0.50;0.33;;;12.00;99.90;;;;;;5051813;28;20846;-78
2022/04/14 03:37:18;;;;;;;0.50;0.35;;;12.00;99.90;;;;;;5051550;28;20448;-73
2022/04/14 03:39:44;;;;;;;0.50;0.40;;;12.00;99.90;;;;;;5050816;28;20195;-77
2022/04/14 03:42:12;;;;;;;0.50;0.40;;;12.10;99.90;;;;;;5050811;28;20703;-77
2022/04/14 03:44:39;;;;;;;0.50;0.40;;;12.00;99.90;;;;;;5051101;28;20190;-78
2022/04/14 03:47:07;;;;;;;0.50;0.40;;;12.00;99.90;;;;;;5051654;28;20198;-77
2022/04/14 03:49:33;;;;;;;1.87;1.77;;;12.10;99.90;;;;;;5050040;28;20201;-78
2022/04/14 03:52:00;;;;;;;0.50;0.40;;;12.00;99.90;;;;;;5051579;28;20483;-78
2022/04/14 03:54:27;;;;;;;0.50;0.40;;;12.10;99.90;;;;;;5051528;28;20480;-77
2022/04/14 03:56:53;;;;;;;2.30;2.10;;;12.10;99.90;;;;;;5051482;28;20436;-77
2022/04/14 03:59:21;;;;;;;0.50;0.40;;;12.10;99.90;;;;;;5050513;28;20947;-74
2022/04/14 04:01:48;;;;;;;0.50;0.40;;;12.10;99.90;;;;;;5051118;28;20468;-77
2022/04/14 04:04:15;;;;;;;0.50;0.40;;;12.10;99.90;;;;;;5049381;28;20441;-78
2022/04/14 04:06:42;;;;;;;0.60;0.50;;;12.10;99.90;;;;;;5051484;28;20205;-78
2022/04/14 04:09:09;;;;;;;0.50;0.40;;;12.10;99.90;;;;;;5050309;28;20226;-77
2022/04/14 04:11:36;;;;;;;0.50;0.40;;;12.10;99.90;;;;;;5051092;28;20457;-77
2022/04/14 04:14:02;;;;;;;0.50;0.40;;;12.00;99.90;;;;;;5051150;28;20214;-77
2022/04/14 04:16:30;;;;;;;0.50;0.40;;;12.00;99.90;;;;;;5051134;28;20546;-77
2022/04/14 04:18:57;;;;;;;0.50;0.40;;;12.00;99.90;;;;;;5050545;28;20439;-75
2022/04/14 04:21:25;;;;;;;0.50;0.40;;;12.00;99.90;;;;;;5050983;28;20464;-77
2022/04/14 04:23:52;;;;;;;0.50;0.40;;;12.00;99.90;;;;;;5050760;28;20733;-78
2022/04/14 04:26:18;;;;;;;0.50;0.50;;;12.00;99.90;;;;;;5051229;28;20209;-77
2022/04/14 04:28:45;;;;;;;0.50;0.30;;;12.00;99.90;;;;;;5050608;28;20209;-75
2022/04/14 04:31:12;;;;;;;1.88;1.77;;;12.10;99.90;;;;;;5050763;28;20214;-77
2022/04/14 04:33:40;;;;;;;0.50;0.30;;;12.10;99.90;;;;;;5050690;28;20207;-77
2022/04/14 04:36:07;;;;;;;0.50;0.40;;;12.10;99.90;;;;;;5051317;28;20436;-78
2022/04/14 04:38:34;;;;;;;0.50;0.40;;;12.10;99.90;;;;;;5051351;28;20252;-77
2022/04/14 04:41:00;;;;;;;0.50;0.30;;;12.10;99.90;;;;;;5050370;28;20715;-77
2022/04/14 04:43:27;;;;;;;0.50;0.40;;;12.00;99.90;;;;;;5050773;28;20664;-77
2022/04/14 04:45:54;;;;;;;0.50;0.40;;;12.10;99.90;;;;;;5051145;28;20587;-77
2022/04/14 04:48:20;;;;;;;0.50;0.40;;;12.10;99.90;;;;;;5050577;28;20201;-76
2022/04/14 04:50:49;;;;;;;1.63;1.53;;;12.00;99.90;;;;;;5049957;28;20221;-79
2022/04/14 04:53:16;;;;;;;0.50;0.50;;;12.00;99.90;;;;;;5050914;28;20441;-78
2022/04/14 04:55:42;;;;;;;0.50;0.50;;;12.10;99.90;;;;;;5053802;28;20217;-77
2022/04/14 04:58:09;;;;;;;0.60;0.40;;;12.10;99.90;;;;;;5054555;28;20198;-77
2022/04/14 05:00:36;;;;;;;0.50;0.40;;;12.10;99.90;;;;;;5053343;28;20214;-77
2022/04/14 05:03:09;;;;;;;0.50;0.40;;;12.10;99.90;;;;;;5053504;28;20698;-77
2022/04/14 05:05:36;;;;;;;0.50;0.40;;;12.10;99.90;;;;;;5054280;28;20265;-77
2022/04/14 05:08:05;;;;;;;0.50;0.40;;;12.10;99.90;;;;;;5054225;28;20441;-77
2022/04/14 05:10:32;;;;;;;0.50;0.50;;;12.10;99.90;;;;;;5053410;28;20592;-78
2022/04/14 05:12:59;;;;;;;0.50;0.40;;;12.10;99.90;;;;;;5054519;28;20437;-78
2022/04/14 05:15:26;;;;;;;0.50;0.30;;;12.10;99.90;;;;;;5053568;28;20214;-78
2022/04/14 05:17:53;;;;;;;0.73;0.70;;;12.10;99.90;;;;;;5054443;28;20613;-78
2022/04/14 05:20:20;;;;;;;0.80;0.80;;;12.10;99.90;;;;;;5053411;28;20194;-78
2022/04/14 05:22:46;;;;;;;0.90;0.70;;;12.10;99.90;;;;;;5053705;28;20437;-77
2022/04/14 05:25:15;;;;;;;0.50;0.40;;;12.20;99.90;;;;;;5053891;28;20437;-78
2022/04/14 05:27:42;;;;;;;0.50;0.40;;;12.10;99.90;;;;;;5054135;28;20815;-77
2022/04/14 05:30:10;;;;;;;0.50;0.40;;;12.20;99.90;;;;;;5053109;28;20441;-74
2022/04/14 05:32:38;;;;;;;0.50;0.40;;;12.20;99.90;;;;;;5053488;28;21020;-77
2022/04/14 05:35:07;;;;;;;0.50;0.50;;;12.20;99.90;;;;;;5053422;28;20500;-78
2022/04/14 05:37:35;;;;;;;0.50;0.40;;;12.20;99.90;;;;;;5053719;28;20448;-78
2022/04/14 05:40:02;;;;;;;0.50;0.40;;;12.30;99.90;;;;;;5052963;28;20476;-77
2022/04/14 05:42:31;;;;;;;0.50;0.40;;;12.30;99.90;;;;;;5053280;28;20573;-78
2022/04/14 05:44:59;;;;;;;0.50;0.40;;;12.30;99.90;;;;;;5053560;28;20295;-77
2022/04/14 05:47:25;;;;;;;0.50;0.40;;;12.40;99.90;;;;;;5053312;28;20201;-77
2022/04/14 05:49:52;;;;;;;0.50;0.30;;;12.40;99.90;;;;;;5052632;28;20198;-77
2022/04/14 05:52:19;;;;;;;0.50;0.30;;;12.40;99.90;;;;;;5053458;28;21009;-78
2022/04/14 05:54:47;;;;;;;0.50;0.32;;;12.50;99.90;;;;;;5053480;28;20484;-76
2022/04/14 05:57:14;;;;;;;2.10;1.90;;;12.50;99.90;;;;;;5052978;28;20222;-78
2022/04/14 05:59:42;;;;;;;0.50;0.30;;;12.60;99.90;;;;;;5052882;28;20441;-78
2022/04/14 06:02:09;;;;;;;0.50;0.40;;;12.60;99.90;;;;;;5052851;28;20457;-77
2022/04/14 06:04:36;;;;;;;3.08;2.63;;;12.60;99.90;;;;;;5051285;28;20913;-77
2022/04/14 06:07:03;;;;;;;0.50;0.40;;;12.70;99.90;;;;;;5051751;28;20194;-77
2022/04/14 06:09:30;;;;;;;1.17;1.17;;;12.70;99.90;;;;;;5052312;28;20195;-78
2022/04/14 06:11:57;;;;;;;1.38;1.30;;;12.70;99.90;;;;;;5052727;28;20491;-77
2022/04/14 06:14:25;;;;;;;1.65;1.55;;;12.80;99.90;;;;;;5052846;28;20217;-77
2022/04/14 06:16:53;;;;;;;0.60;0.60;;;12.80;99.90;;;;;;5052283;28;20198;-77
2022/04/14 06:19:20;;;;;;;7.30;4.97;;;12.90;99.90;;;;;;5051723;28;20479;-77
2022/04/14 06:21:46;;;;;;;1.53;1.43;;;12.90;99.90;;;;;;5052623;28;20464;-77
2022/04/14 06:24:13;;;;;;;9.98;3.70;;;12.90;99.90;;;;;;5052970;28;20808;-75
2022/04/14 06:26:40;;;;;;;0.60;0.50;;;12.90;99.90;;;;;;5052392;28;20206;-77
2022/04/14 06:29:07;;;;;;;2.17;2.00;;;13.00;99.90;;;;;;5051760;28;20441;-77
2022/04/14 06:31:35;;;;;;;2.40;1.43;;;13.00;99.90;;;;;;5052733;28;20465;-77
2022/04/14 06:34:03;;;;;;;0.50;0.30;;;13.00;99.90;;;;;;5052151;28;20448;-77
2022/04/14 06:36:29;;;;;;;0.50;0.30;;;13.10;99.90;;;;;;5052515;28;20589;-77
2022/04/14 06:38:56;;;;;;;0.50;0.37;;;13.20;99.90;;;;;;5052279;28;20194;-77
2022/04/14 06:41:23;;;;;;;0.50;0.40;;;13.30;99.90;;;;;;5052056;28;20465;-78
2022/04/14 06:43:50;;;;;;;0.50;0.38;;;13.40;99.90;;;;;;5052644;28;20442;-78
2022/04/14 06:46:17;;;;;;;0.50;0.40;;;13.60;99.90;;;;;;5052427;28;20205;-76
2022/04/14 06:48:44;;;;;;;0.68;0.65;;;13.70;99.90;;;;;;5051377;28;20830;-78
2022/04/14 06:51:12;;;;;;;0.50;0.40;;;13.80;99.90;;;;;;5051782;28;20222;-73
2022/04/14 06:53:43;;;;;;;0.60;0.60;;;13.90;99.90;;;;;;5052332;28;20432;-77
2022/04/14 06:56:10;;;;;;;1.90;1.80;;;13.90;99.90;;;;;;5051621;28;21037;-78
2022/04/14 06:58:36;;;;;;;0.50;0.30;;;13.90;99.90;;;;;;5053194;28;20441;-77
2022/04/14 07:01:04;;;;;;;1.03;1.03;;;13.90;99.90;;;;;;5051726;28;20469;-78
2022/04/14 07:03:31;;;;;;;1.57;0.83;;;13.90;99.90;;;;;;5050202;28;20443;-78
2022/04/14 07:06:00;;;;;;;0.60;0.50;;;13.80;99.90;;;;;;5051571;28;20438;-77
2022/04/14 07:08:28;;;;;;;1.37;1.27;;;13.90;99.90;;;;;;5051781;28;20807;-78
2022/04/14 07:10:57;;;;;;;1.27;1.17;;;13.90;99.90;;;;;;5051043;28;20453;-78
2022/04/14 07:13:24;;;;;;;2.60;2.40;;;14.00;99.90;;;;;;5051257;28;20979;-78
2022/04/14 07:15:50;;;;;;;3.63;2.93;;;14.30;99.90;;;;;;5051652;28;20492;-77
2022/04/14 07:18:17;;;;;;;1.30;1.27;;;14.80;99.90;;;;;;5051531;28;20441;-79
2022/04/14 07:20:46;;;;;;;8.53;2.97;;;15.40;99.90;;;;;;5051022;28;20874;-77
2022/04/14 07:23:13;;;;;;;1.17;1.07;;;16.00;99.90;;;;;;5051766;28;20542;-73
2022/04/14 07:25:41;;;;;;;0.50;0.30;;;16.60;99.90;;;;;;5051265;28;20448;-77
2022/04/14 07:28:08;;;;;;;0.50;0.33;;;17.20;99.90;;;;;;5051613;28;20445;-77
2022/04/14 07:30:35;;;;;;;0.60;0.40;;;18.10;99.90;;;;;;5051413;28;20467;-77
2022/04/14 07:33:01;;;;;;;5.90;1.90;;;19.20;99.90;;;;;;5051295;28;20447;-78
2022/04/14 07:35:28;;;;;;;1.53;1.43;;;20.00;99.90;;;;;;5051335;28;20483;-79
2022/04/14 07:37:55;;;;;;;5.23;4.83;;;20.30;99.90;;;;;;5051254;28;20437;-78
2022/04/14 07:40:22;;;;;;;4.23;3.80;;;20.50;99.90;;;;;;5050171;28;20452;-78
2022/04/14 07:42:50;;;;;;;0.93;0.93;;;20.90;99.90;;;;;;5101978;22;20500;-77
2022/04/14 07:45:17;;;;;;;2.43;2.27;;;21.40;99.90;;;;;;5042629;28;20843;-75
2022/04/14 07:47:45;;;;;;;3.53;3.23;;;22.20;99.90;;;;;;5051145;28;20441;-79
2022/04/14 07:50:13;;;;;;;3.23;3.03;;;22.90;99.90;;;;;;5050584;28;20437;-73
2022/04/14 07:52:48;;;;;;;0.50;0.37;;;23.70;99.90;;;;;;5051141;28;20448;-76
2022/04/14 07:55:19;;;;;;;1.43;1.43;;;24.90;99.90;;;;;;5051201;28;20480;-76
2022/04/14 07:57:46;;;;;;;0.60;0.50;;;25.10;99.90;;;;;;5050616;28;20447;-78
2022/04/14 08:00:15;;;;;;;0.50;0.50;;;25.50;99.90;;;;;;5050721;28;20445;-75
2022/04/14 08:02:47;;;;;;;1.17;1.00;;;25.50;99.90;;;;;;5051083;28;20464;-76
2022/04/14 08:05:14;;;;;;;1.70;1.60;;;26.10;99.90;;;;;;5050877;28;20788;-76
2022/04/14 08:07:41;;;;;;;1.23;1.23;;;27.10;98.30;;;;;;5050983;28;20445;-75
2022/04/14 08:10:09;;;;;;;2.77;2.57;;;28.10;94.50;;;;;;5050160;28;20448;-77
2022/04/14 08:12:35;;;;;;;0.50;0.40;;;28.10;90.70;;;;;;5051343;28;20519;-76
2022/04/14 08:15:02;;;;;;;0.50;0.40;;;28.20;90.10;;;;;;5050981;28;20475;-77
2022/04/14 08:17:30;;;;;;;0.60;0.60;;;28.50;89.90;;;;;;5050881;28;20438;-76
2022/04/14 08:19:57;;;;;;;0.50;0.37;;;29.20;84.00;;;;;;5050037;28;20437;-75
2022/04/14 08:22:23;;;;;;;3.13;2.93;;;29.40;80.30;;;;;;5050853;28;20468;-76
2022/04/14 08:24:50;;;;;;;0.50;0.30;;;30.10;77.90;;;;;;5051152;28;20448;-76
2022/04/14 08:27:18;;;;;;;2.60;2.50;;;29.50;79.50;;;;;;5050670;28;20437;-77
2022/04/14 08:29:44;;;;;;;2.87;1.90;;;30.10;77.30;;;;;;5051793;28;20540;-77
2022/04/14 08:32:11;;;;;;;4.50;2.60;;;30.40;75.00;;;;;;5054481;28;20853;-77
2022/04/14 08:34:40;;;;;;;1.03;1.03;;;30.10;71.90;;;;;;5054668;28;20445;-77
2022/04/14 08:37:07;;;;;;;1.23;1.13;;;30.20;72.90;;;;;;5055077;28;20444;-77
2022/04/14 08:39:34;;;;;;;2.80;2.60;;;30.50;71.00;;;;;;5054074;28;20441;-77
2022/04/14 08:42:06;;;;;;;2.00;1.63;;;30.80;70.00;;;;;;5054517;28;20476;-77
2022/04/14 08:44:37;;;;;;;1.03;0.60;;;29.40;71.00;;;;;;5054533;28;20487;-77
2022/04/14 08:47:06;;;;;;;3.87;3.53;;;29.90;73.50;;;;;;5054854;28;20452;-76
2022/04/14 08:49:34;;;;;;;6.73;3.00;;;29.80;70.00;;;;;;5058188;28;20487;-76
2022/04/14 08:52:02;;;;;;;6.30;4.03;;;29.80;73.80;;;;;;5054697;28;20460;-76
2022/04/14 08:54:30;;;;;;;4.63;1.27;;;30.40;68.30;;;;;;5054325;28;20440;-76
2022/04/14 08:56:59;;;;;;;1.33;0.90;;;30.30;68.50;;;;;;5054120;28;20441;-77
2022/04/14 08:59:28;;;;;;;1.43;1.43;;;30.80;70.80;;;;;;5054510;28;20925;-77
2022/04/14 09:01:56;;;;;;;0.70;0.70;;;31.80;70.20;;;;;;5053984;28;20469;-77
2022/04/14 09:04:22;;;;;;;12.10;3.50;;;31.50;66.80;;;;;;5052888;28;20449;-78
2022/04/14 09:06:49;;;;;;;3.20;3.00;;;31.30;67.10;;;;;;5054704;28;20429;-76
2022/04/14 09:09:17;;;;;;;2.30;2.00;;;29.70;68.30;;;;;;5052875;28;20453;-78
2022/04/14 09:11:44;;;;;;;2.17;1.97;;;29.60;67.50;;;;;;5053636;28;20467;-77
2022/04/14 09:14:11;;;;;;;3.17;1.90;;;29.00;69.40;;;;;;5053846;28;20441;-77
2022/04/14 09:16:38;;;;;;;0.50;0.30;;;28.40;71.80;;;;;;5054067;28;20473;-77
2022/04/14 09:19:05;;;;;;;0.50;0.30;;;28.30;74.00;;;;;;5053116;28;20440;-76
2022/04/14 09:21:32;;;;;;;5.60;1.27;;;28.50;76.90;;;;;;5053797;28;20464;-77
2022/04/14 09:23:59;;;;;;;0.50;0.30;;;29.60;69.50;;;;;;5053704;28;20439;-79
2022/04/14 09:26:28;;;;;;;5.23;4.23;;;31.00;70.50;;;;;;5053769;28;20471;-77
2022/04/14 09:29:03;;;;;;;3.33;2.00;;;32.00;61.40;;;;;;5053500;28;20445;-77
2022/04/14 09:31:30;;;;;;;1.60;1.50;;;31.80;63.00;;;;;;5053576;28;20923;-76
2022/04/14 09:33:57;;;;;;;3.97;3.67;;;31.10;61.30;;;;;;5053471;28;20464;-75
2022/04/14 09:36:27;;;;;;;4.13;3.67;;;29.70;64.10;;;;;;5053460;28;20483;-78
2022/04/14 09:38:59;;;;;;;0.50;0.40;;;28.90;64.80;;;;;;5053433;28;20861;-77
2022/04/14 09:41:38;;;;;;;5.50;3.70;;;28.30;65.00;;;;;;5052285;28;20499;-77
2022/04/14 09:44:08;;;;;;;11.73;1.50;;;27.70;66.20;;;;;;5054907;28;20430;-77
2022/04/14 09:46:35;;;;;;;0.50;0.40;;;27.50;67.80;;;;;;5054086;28;20862;-77
2022/04/14 09:49:07;;;;;;;0.50;0.30;;;27.70;68.10;;;;;;5053736;28;20445;-76
2022/04/14 09:51:35;;;;;;;0.50;0.30;;;27.40;67.60;;;;;;5054185;28;20467;-77
2022/04/14 09:54:06;;;;;;;1.00;0.87;;;28.20;72.60;;;;;;5054214;28;20528;-76
2022/04/14 09:56:43;;;;;;;0.60;0.50;;;29.30;65.20;;;;;;5054231;28;20468;-76
2022/04/14 09:59:11;;;;;;;0.50;0.30;;;30.20;61.00;;;;;;5053564;28;20429;-77
2022/04/14 10:01:38;;;;;;;0.60;0.57;;;29.30;60.50;;;;;;5054185;28;21008;-76
2022/04/14 10:04:06;;;;;;;2.33;1.80;;;28.40;63.20;;;;;;5052183;28;20799;-76
2022/04/14 10:06:33;;;;;;;3.60;1.03;;;27.50;65.90;;;;;;5054766;28;20506;-77
2022/04/14 10:08:59;;;;;;;0.50;0.50;;;27.70;67.20;;;;;;5052701;28;20923;-76
2022/04/14 10:11:29;;;;;;;2.30;1.73;;;28.60;64.80;;;;;;5054327;28;20453;-75
2022/04/14 10:14:10;;;;;;;2.03;1.83;;;29.90;62.60;;;;;;5053982;28;20441;-74
2022/04/14 10:16:39;;;;;;;1.13;0.90;;;30.00;62.90;;;;;;5054404;28;20619;-77
2022/04/14 10:19:08;;;;;;;5.50;2.80;;;30.00;59.70;;;;;;5052428;28;20476;-76
2022/04/14 10:21:36;;;;;;;0.50;0.30;;;30.00;59.00;;;;;;5054458;28;20456;-77
2022/04/14 10:24:05;;;;;;;2.90;2.70;;;30.70;58.50;;;;;;5054124;28;20475;-77
2022/04/14 10:26:34;;;;;;;7.10;2.07;;;30.80;58.10;;;;;;5054685;28;20800;-75
2022/04/14 10:29:06;;;;;;;0.50;0.30;;;30.90;57.60;;;;;;5053195;28;20436;-77
2022/04/14 10:31:35;;;;;;;0.97;0.60;;;31.80;59.10;;;;;;5054612;28;20531;-77
2022/04/14 10:34:04;;;;;;;1.50;1.17;;;33.30;55.90;;;;;;5054409;28;20879;-77
2022/04/14 10:36:32;;;;;;;0.50;0.30;;;33.20;53.90;;;;;;5054850;28;20481;-77
2022/04/14 10:39:01;;;;;;;0.60;0.60;;;32.10;56.20;;;;;;5053161;28;20436;-77
2022/04/14 10:41:32;;;;;;;0.50;0.40;;;31.30;54.70;;;;;;5053560;28;20472;-76
2022/04/14 10:44:01;;;;;;;3.07;1.37;;;31.00;56.60;;;;;;5053560;28;20480;-76
2022/04/14 10:46:34;;;;;;;0.50;0.30;;;31.10;55.60;;;;;;5053482;28;20621;-77
2022/04/14 10:49:23;;;;;;;0.57;0.53;;;31.20;57.70;;;;;;5052754;28;20452;-79
2022/04/14 10:51:53;;;;;;;0.60;0.43;;;30.70;55.20;;;;;;5053726;28;20854;-76
2022/04/14 10:54:20;;;;;;;0.50;0.30;;;30.20;56.50;;;;;;5053494;28;20482;-75
2022/04/14 10:56:50;;;;;;;11.90;3.30;;;30.80;57.10;;;;;;5053184;28;20556;-78
2022/04/14 10:59:18;;;;;;;0.50;0.30;;;31.60;55.30;;;;;;5051295;28;20441;-78
2022/04/14 11:01:57;;;;;;;0.50;0.40;;;32.10;54.10;;;;;;5052533;28;20460;-78
2022/04/14 11:04:32;;;;;;;0.50;0.30;;;33.60;53.70;;;;;;5050441;28;20878;-78
2022/04/14 11:07:01;;;;;;;1.00;0.63;;;34.30;52.00;;;;;;5052222;28;20433;-78
2022/04/14 11:09:50;;;;;;;0.50;0.40;;;33.80;50.10;;;;;;5051313;28;20480;-78
2022/04/14 11:12:19;;;;;;;0.90;0.70;;;33.60;52.00;;;;;;5052228;28;20457;-77
2022/04/14 11:14:50;;;;;;;0.50;0.30;;;33.20;51.50;;;;;;5051975;28;20437;-77
2022/04/14 11:17:58;;;;;;;0.50;0.30;;;33.30;51.70;;;;;;5052218;28;20461;-76
2022/04/14 11:20:54;;;;;;;0.50;0.50;;;31.70;52.90;;;;;;5051832;28;20465;-79
2022/04/14 11:23:24;;;;;;;0.50;0.30;;;30.70;55.00;;;;;;5054481;28;20422;-77
2022/04/14 11:25:52;;;;;;;1.50;1.40;;;29.90;56.20;;;;;;5054185;28;20429;-77
2022/04/14 11:28:25;;;;;;;2.90;0.97;;;29.50;56.50;;;;;;5053779;28;20420;-76
2022/04/14 11:30:55;;;;;;;0.50;0.30;;;28.80;57.70;;;;;;5052553;28;20439;-75
2022/04/14 11:33:36;;;;;;;0.50;0.30;;;27.40;58.60;;;;;;5053431;28;20910;-77
2022/04/14 11:36:15;;;;;;;0.50;0.40;;;26.80;60.60;;;;;;5052867;28;20477;-77
2022/04/14 11:39:02;;;;;;;0.50;0.30;;;26.20;63.20;;;;;;5054277;28;20445;-78
2022/04/14 11:41:31;;;;;;;3.17;2.87;;;25.90;65.30;;;;;;5053673;28;20983;-76
2022/04/14 11:43:58;;;;;;;1.73;0.90;;;25.60;63.80;;;;;;5053769;28;20571;-76
2022/04/14 11:46:25;;;;;;;7.20;2.20;;;25.30;65.00;;;;;;5054016;28;20953;-78
2022/04/14 11:48:52;;;;;;;1.33;0.67;;;25.70;65.40;;;;;;5053280;28;20444;-77
2022/04/14 11:51:20;;;;;;;0.50;0.30;;;26.40;64.20;;;;;;5054110;28;20826;-77
2022/04/14 11:53:47;;;;;;;0.70;0.50;;;26.90;62.10;;;;;;5053730;28;20930;-76
2022/04/14 11:56:17;;;;;;;0.73;0.73;;;27.80;61.50;;;;;;5053577;28;20495;-75
2022/04/14 11:58:44;;;;;;;2.50;2.40;;;28.60;59.50;;;;;;5054544;28;20467;-76
2022/04/14 12:01:12;;;;;;;0.60;0.50;;;29.20;58.90;;;;;;5053457;28;20443;-75
2022/04/14 12:03:39;;;;;;;0.70;0.70;;;29.80;58.10;;;;;;5052483;28;20433;-75
2022/04/14 12:06:08;;;;;;;0.50;0.30;;;29.80;54.30;;;;;;5054594;28;20433;-77
2022/04/14 12:08:36;;;;;;;0.50;0.30;;;28.60;54.70;;;;;;5055314;28;20531;-76
2022/04/14 12:11:04;;;;;;;0.50;0.30;;;27.40;56.90;;;;;;5054156;28;20445;-78
2022/04/14 12:13:33;;;;;;;0.63;0.60;;;26.80;60.50;;;;;;5054247;28;20894;-77
2022/04/14 12:16:01;;;;;;;0.50;0.30;;;27.70;59.80;;;;;;5055059;28;20549;-74
2022/04/14 12:18:28;;;;;;;1.70;1.40;;;28.50;59.20;;;;;;5053937;28;20445;-75
2022/04/14 12:20:55;;;;;;;0.50;0.30;;;29.70;56.50;;;;;;5053323;28;20514;-76
2022/04/14 12:23:22;;;;;;;0.50;0.30;;;30.70;55.50;;;;;;5054887;28;20441;-75
2022/04/14 12:25:52;;;;;;;0.50;0.37;;;31.10;54.30;;;;;;5055396;28;20834;-77
2022/04/14 12:28:19;;;;;;;0.50;0.30;;;31.20;53.80;;;;;;5054905;28;20544;-75
2022/04/14 12:30:46;;;;;;;0.60;0.40;;;30.90;54.80;;;;;;5053886;28;20441;-79
2022/04/14 12:33:13;;;;;;;0.50;0.40;;;30.50;54.10;;;;;;5055031;28;20457;-77
2022/04/14 12:35:41;;;;;;;1.17;1.17;;;30.10;54.10;;;;;;5054543;28;20532;-77
2022/04/14 12:38:15;;;;;;;0.50;0.30;;;30.00;53.50;;;;;;5051343;28;20464;-77
2022/04/14 12:40:59;;;;;;;3.03;2.87;;;29.20;54.80;;;;;;5051430;28;20462;-77
2022/04/14 12:43:28;;;;;;;0.50;0.30;;;28.90;56.30;;;;;;5050852;28;20839;-77
2022/04/14 12:45:55;;;;;;;0.50;0.40;;;28.50;56.00;;;;;;5050966;28;20448;-77
2022/04/14 12:48:29;;;;;;;0.50;0.30;;;28.00;56.90;;;;;;5050595;28;21029;-77
2022/04/14 12:50:57;;;;;;;1.27;1.17;;;27.20;57.90;;;;;;5049770;28;20437;-76